Time,TemperatureF,DewpointF,PressureIn,WindDirection,WindDirectionDegrees,WindSpeedMPH,WindSpeedGustMPH,Humidity,HourlyPrecipIn,Conditions,Clouds,dailyrainin,SoftwareType,DateUTC
2012-11-11 00:00:00,32.8,29.6,30.18,WNW,293,0.4,1.6,88,0.00,,,0.00,WUHU216HW,2012-11-11 08:00:00,
2012-11-11 00:05:00,32.8,29.6,30.19,WNW,293,2.0,2.0,88,0.00,,,0.00,WUHU216HW,2012-11-11 08:05:00,
2012-11-11 00:10:00,32.8,29.9,30.19,WSW,248,1.3,2.5,89,0.00,,,0.00,WUHU216HW,2012-11-11 08:10:00,
2012-11-11 00:15:00,32.6,29.7,30.19,WNW,293,1.6,2.5,89,0.00,,,0.00,WUHU216HW,2012-11-11 08:15:00,
2012-11-11 00:20:00,32.6,29.7,30.19,West,270,1.1,1.8,89,0.00,,,0.00,WUHU216HW,2012-11-11 08:20:00,
2012-11-11 00:25:00,32.6,29.7,30.19,WNW,293,0.9,1.8,89,0.00,,,0.00,WUHU216HW,2012-11-11 08:25:00,
2012-11-11 00:30:00,32.8,29.9,30.19,West,270,0.7,1.6,89,0.00,,,0.00,WUHU216HW,2012-11-11 08:30:00,
2012-11-11 00:35:00,32.8,29.9,30.19,WNW,293,0.7,1.6,89,0.00,,,0.00,WUHU216HW,2012-11-11 08:35:00,
2012-11-11 00:40:00,32.9,30.1,30.19,WNW,293,1.1,1.3,89,0.00,,,0.00,WUHU216HW,2012-11-11 08:40:00,
2012-11-11 00:45:00,32.9,30.1,30.19,West,270,0.4,1.8,89,0.00,,,0.00,WUHU216HW,2012-11-11 08:45:00,
2012-11-11 00:50:00,32.9,30.1,30.19,West,270,1.6,1.8,89,0.00,,,0.00,WUHU216HW,2012-11-11 08:50:00,
2012-11-11 00:55:00,32.9,30.1,30.19,West,270,1.3,2.0,89,0.00,,,0.00,WUHU216HW,2012-11-11 08:55:00,
2012-11-11 01:00:00,32.9,30.1,30.19,West,270,1.3,2.0,89,0.00,,,0.00,WUHU216HW,2012-11-11 09:00:00,
2012-11-11 01:05:00,32.8,29.9,30.20,West,270,1.1,1.8,89,0.00,,,0.00,WUHU216HW,2012-11-11 09:05:00,
2012-11-11 01:10:00,32.8,29.9,30.19,West,270,0.9,1.8,89,0.00,,,0.00,WUHU216HW,2012-11-11 09:10:00,
2012-11-11 01:15:00,32.8,29.9,30.19,West,270,0.0,1.6,89,0.00,,,0.00,WUHU216HW,2012-11-11 09:15:00,
2012-11-11 01:20:00,32.8,29.9,30.19,NNW,338,0.0,1.1,89,0.00,,,0.00,WUHU216HW,2012-11-11 09:20:00,
2012-11-11 01:25:00,32.9,30.1,30.19,NNW,338,0.4,1.1,89,0.00,,,0.00,WUHU216HW,2012-11-11 09:25:00,
2012-11-11 01:30:00,33.1,30.3,30.20,NNW,338,0.0,0.9,89,0.00,,,0.00,WUHU216HW,2012-11-11 09:30:00,
2012-11-11 01:35:00,33.1,30.3,30.20,WSW,248,0.0,1.1,89,0.00,,,0.00,WUHU216HW,2012-11-11 09:35:00,
2012-11-11 01:40:00,33.3,30.3,30.20,West,270,0.2,1.1,89,0.00,,,0.00,WUHU216HW,2012-11-11 09:40:00,
2012-11-11 01:45:00,33.5,30.5,30.20,West,270,0.4,0.9,89,0.00,,,0.00,WUHU216HW,2012-11-11 09:45:00,
2012-11-11 01:50:00,33.5,30.5,30.20,West,270,0.0,1.1,89,0.00,,,0.00,WUHU216HW,2012-11-11 09:50:00,
2012-11-11 01:55:00,33.7,30.7,30.20,NW,315,0.7,1.1,89,0.00,,,0.00,WUHU216HW,2012-11-11 09:55:00,
2012-11-11 02:00:00,33.8,30.9,30.20,WNW,293,1.1,1.1,89,0.00,,,0.00,WUHU216HW,2012-11-11 10:00:00,
2012-11-11 02:05:00,33.7,30.7,30.20,WNW,293,1.1,1.6,89,0.00,,,0.00,WUHU216HW,2012-11-11 10:05:00,
2012-11-11 02:10:00,33.7,30.7,30.20,NW,315,1.1,1.8,89,0.00,,,0.00,WUHU216HW,2012-11-11 10:10:00,
2012-11-11 02:15:00,33.7,30.7,30.20,WNW,293,1.1,2.2,89,0.00,,,0.00,WUHU216HW,2012-11-11 10:15:00,
2012-11-11 02:20:00,33.7,30.7,30.20,West,270,0.4,2.2,89,0.00,,,0.00,WUHU216HW,2012-11-11 10:20:00,
2012-11-11 02:25:00,33.8,30.9,30.20,WNW,293,0.4,2.2,89,0.00,,,0.00,WUHU216HW,2012-11-11 10:25:00,
2012-11-11 02:30:00,34.0,31.1,30.20,WNW,293,0.0,1.8,89,0.00,,,0.00,WUHU216HW,2012-11-11 10:30:00,
2012-11-11 02:35:00,34.2,31.2,30.20,NW,315,0.0,0.4,89,0.00,,,0.00,WUHU216HW,2012-11-11 10:35:00,
2012-11-11 02:40:00,34.4,31.4,30.20,West,270,2.0,2.0,89,0.00,,,0.00,WUHU216HW,2012-11-11 10:40:00,
2012-11-11 02:45:00,34.6,31.6,30.20,West,270,0.4,2.2,89,0.00,,,0.00,WUHU216HW,2012-11-11 10:45:00,
2012-11-11 02:50:00,34.4,31.4,30.20,West,270,0.9,2.2,89,0.00,,,0.00,WUHU216HW,2012-11-11 10:50:00,
2012-11-11 02:55:00,34.4,31.4,30.19,WNW,293,0.4,1.6,89,0.00,,,0.00,WUHU216HW,2012-11-11 10:55:00,
2012-11-11 03:00:00,34.4,31.4,30.19,WNW,293,0.9,1.3,89,0.00,,,0.00,WUHU216HW,2012-11-11 11:00:00,
2012-11-11 03:05:00,34.4,31.4,30.19,WNW,293,0.4,1.3,89,0.00,,,0.00,WUHU216HW,2012-11-11 11:05:00,
2012-11-11 03:10:00,34.6,31.6,30.19,WNW,293,0.7,1.1,89,0.00,,,0.00,WUHU216HW,2012-11-11 11:10:00,
2012-11-11 03:15:00,34.6,31.6,30.19,West,270,1.3,1.6,89,0.00,,,0.00,WUHU216HW,2012-11-11 11:15:00,
2012-11-11 03:20:00,34.6,31.6,30.18,West,270,1.1,2.0,89,0.00,,,0.00,WUHU216HW,2012-11-11 11:20:00,
2012-11-11 03:25:00,34.6,31.6,30.18,West,270,0.0,2.0,89,0.00,,,0.00,WUHU216HW,2012-11-11 11:25:00,
2012-11-11 03:30:00,34.6,31.6,30.18,West,270,0.4,1.1,89,0.00,,,0.00,WUHU216HW,2012-11-11 11:30:00,
2012-11-11 03:35:00,34.7,31.8,30.18,NW,315,0.0,0.9,89,0.00,,,0.00,WUHU216HW,2012-11-11 11:35:00,
2012-11-11 03:40:00,34.9,32.0,30.18,NW,315,0.4,0.9,89,0.00,,,0.00,WUHU216HW,2012-11-11 11:40:00,
2012-11-11 03:45:00,34.9,32.0,30.18,NW,315,0.4,0.9,89,0.00,,,0.00,WUHU216HW,2012-11-11 11:45:00,
2012-11-11 03:50:00,35.1,32.1,30.18,West,270,2.5,2.5,89,0.00,,,0.00,WUHU216HW,2012-11-11 11:50:00,
2012-11-11 03:55:00,35.1,32.1,30.18,West,270,0.7,2.5,89,0.00,,,0.00,WUHU216HW,2012-11-11 11:55:00,
2012-11-11 04:00:00,34.9,32.0,30.18,SW,225,0.0,2.5,89,0.00,,,0.00,WUHU216HW,2012-11-11 12:00:00,
2012-11-11 04:05:00,34.9,32.0,30.18,WSW,248,0.0,1.3,89,0.00,,,0.00,WUHU216HW,2012-11-11 12:05:00,
2012-11-11 04:10:00,34.9,32.0,30.18,West,270,1.8,1.8,89,0.00,,,0.00,WUHU216HW,2012-11-11 12:10:00,
2012-11-11 04:15:00,34.9,32.0,30.18,NNW,338,0.7,1.8,89,0.00,,,0.00,WUHU216HW,2012-11-11 12:15:00,
2012-11-11 04:20:00,35.1,32.1,30.18,NNW,338,0.0,1.8,89,0.00,,,0.00,WUHU216HW,2012-11-11 12:20:00,
2012-11-11 04:25:00,35.1,32.1,30.18,West,270,1.1,1.8,89,0.00,,,0.00,WUHU216HW,2012-11-11 12:25:00,
2012-11-11 04:30:00,35.1,32.1,30.18,West,270,1.6,1.8,89,0.00,,,0.00,WUHU216HW,2012-11-11 12:30:00,
2012-11-11 04:35:00,34.9,32.0,30.18,WSW,248,0.7,2.5,89,0.00,,,0.00,WUHU216HW,2012-11-11 12:35:00,
2012-11-11 04:40:00,34.9,32.0,30.18,WSW,248,2.0,2.5,89,0.00,,,0.00,WUHU216HW,2012-11-11 12:40:00,
2012-11-11 04:45:00,34.9,32.0,30.18,West,270,1.1,2.5,89,0.00,,,0.00,WUHU216HW,2012-11-11 12:45:00,
2012-11-11 04:50:00,34.7,31.8,30.18,West,270,1.3,2.5,89,0.00,,,0.00,WUHU216HW,2012-11-11 12:50:00,
2012-11-11 04:55:00,34.7,31.8,30.18,West,270,1.1,2.0,89,0.00,,,0.00,WUHU216HW,2012-11-11 12:55:00,
2012-11-11 05:00:00,34.7,31.8,30.18,West,270,0.4,2.0,89,0.00,,,0.00,WUHU216HW,2012-11-11 13:00:00,
2012-11-11 05:05:00,34.7,31.8,30.18,West,270,1.3,1.8,89,0.00,,,0.00,WUHU216HW,2012-11-11 13:05:00,
2012-11-11 05:10:00,34.7,31.8,30.18,WSW,248,2.5,3.8,89,0.00,,,0.00,WUHU216HW,2012-11-11 13:10:00,
2012-11-11 05:15:00,34.7,31.8,30.18,West,270,1.3,3.8,89,0.00,,,0.00,WUHU216HW,2012-11-11 13:15:00,
2012-11-11 05:20:00,34.9,32.0,30.18,WSW,248,2.5,2.9,89,0.00,,,0.00,WUHU216HW,2012-11-11 13:20:00,
2012-11-11 05:25:00,34.9,32.0,30.18,WSW,248,1.1,2.9,89,0.00,,,0.00,WUHU216HW,2012-11-11 13:25:00,
2012-11-11 05:30:00,34.9,32.0,30.17,WSW,248,1.6,2.5,89,0.00,,,0.00,WUHU216HW,2012-11-11 13:30:00,
2012-11-11 05:35:00,34.9,32.0,30.17,West,270,1.8,2.5,89,0.00,,,0.00,WUHU216HW,2012-11-11 13:35:00,
2012-11-11 05:40:00,34.9,32.0,30.17,WSW,248,0.9,2.5,89,0.00,,,0.00,WUHU216HW,2012-11-11 13:40:00,
2012-11-11 05:45:00,34.9,32.0,30.17,West,270,0.9,1.8,89,0.00,,,0.00,WUHU216HW,2012-11-11 13:45:00,
2012-11-11 05:50:00,35.1,32.1,30.17,WNW,293,1.8,1.8,89,0.00,,,0.00,WUHU216HW,2012-11-11 13:50:00,
2012-11-11 05:55:00,35.1,32.1,30.17,WNW,293,0.4,2.5,89,0.00,,,0.00,WUHU216HW,2012-11-11 13:55:00,
2012-11-11 06:00:00,35.1,32.4,30.18,West,270,0.2,2.5,90,0.00,,,0.00,WUHU216HW,2012-11-11 14:00:00,
2012-11-11 06:05:00,35.1,32.4,30.17,WSW,248,0.7,1.8,90,0.00,,,0.00,WUHU216HW,2012-11-11 14:05:00,
2012-11-11 06:10:00,35.1,32.1,30.17,WSW,248,1.3,1.6,89,0.00,,,0.00,WUHU216HW,2012-11-11 14:10:00,
2012-11-11 06:15:00,35.1,32.4,30.17,West,270,1.3,1.8,90,0.00,,,0.00,WUHU216HW,2012-11-11 14:15:00,
2012-11-11 06:20:00,35.1,32.1,30.18,West,270,0.9,1.8,89,0.00,,,0.00,WUHU216HW,2012-11-11 14:20:00,
2012-11-11 06:25:00,35.3,32.6,30.18,West,270,0.7,1.8,90,0.00,,,0.00,WUHU216HW,2012-11-11 14:25:00,
2012-11-11 06:30:00,35.3,32.6,30.18,West,270,0.0,1.1,90,0.00,,,0.00,WUHU216HW,2012-11-11 14:30:00,
2012-11-11 06:35:00,35.3,32.6,30.18,West,270,0.7,0.9,90,0.00,,,0.00,WUHU216HW,2012-11-11 14:35:00,
2012-11-11 06:40:00,35.5,32.8,30.18,West,270,0.0,1.1,90,0.00,,,0.00,WUHU216HW,2012-11-11 14:40:00,
2012-11-11 06:45:00,35.5,32.8,30.18,West,270,0.2,1.1,90,0.00,,,0.00,WUHU216HW,2012-11-11 14:45:00,
2012-11-11 06:50:00,35.6,32.9,30.17,West,270,0.0,0.9,90,0.00,,,0.00,WUHU216HW,2012-11-11 14:50:00,
2012-11-11 06:55:00,35.6,32.9,30.17,West,270,0.0,0.7,90,0.00,,,0.00,WUHU216HW,2012-11-11 14:55:00,
2012-11-11 07:00:00,35.6,32.9,30.17,West,270,0.0,0.0,90,0.00,,,0.00,WUHU216HW,2012-11-11 15:00:00,
2012-11-11 07:05:00,35.8,33.1,30.18,WNW,293,0.7,0.7,90,0.00,,,0.00,WUHU216HW,2012-11-11 15:05:00,
2012-11-11 07:10:00,35.8,33.1,30.18,West,270,1.3,1.3,90,0.00,,,0.00,WUHU216HW,2012-11-11 15:10:00,
2012-11-11 07:15:00,35.8,33.1,30.18,West,270,1.1,1.6,90,0.00,,,0.00,WUHU216HW,2012-11-11 15:15:00,
2012-11-11 07:20:00,35.8,33.1,30.18,West,270,0.9,1.6,90,0.00,,,0.00,WUHU216HW,2012-11-11 15:20:00,
2012-11-11 07:25:00,35.8,33.1,30.18,West,270,0.0,1.1,90,0.00,,,0.00,WUHU216HW,2012-11-11 15:25:00,
2012-11-11 07:30:00,35.8,33.1,30.18,West,270,0.7,1.1,90,0.00,,,0.00,WUHU216HW,2012-11-11 15:30:00,
2012-11-11 07:35:00,36.0,33.3,30.18,West,270,1.8,2.0,90,0.00,,,0.00,WUHU216HW,2012-11-11 15:35:00,
2012-11-11 07:40:00,36.0,33.3,30.18,West,270,0.9,2.0,90,0.00,,,0.00,WUHU216HW,2012-11-11 15:40:00,
2012-11-11 07:45:00,36.0,33.3,30.18,West,270,1.1,2.0,90,0.00,,,0.00,WUHU216HW,2012-11-11 15:45:00,
2012-11-11 07:50:00,36.0,33.3,30.19,West,270,1.1,1.8,90,0.00,,,0.00,WUHU216HW,2012-11-11 15:50:00,
2012-11-11 07:55:00,35.8,33.1,30.19,West,270,1.1,2.2,90,0.00,,,0.00,WUHU216HW,2012-11-11 15:55:00,
2012-11-11 08:00:00,36.0,33.3,30.19,West,270,0.9,2.2,90,0.00,,,0.00,WUHU216HW,2012-11-11 16:00:00,
2012-11-11 08:05:00,36.0,33.3,30.19,West,270,0.4,1.1,90,0.00,,,0.00,WUHU216HW,2012-11-11 16:05:00,
2012-11-11 08:10:00,36.0,33.3,30.19,West,270,1.1,1.3,90,0.00,,,0.00,WUHU216HW,2012-11-11 16:10:00,
2012-11-11 08:15:00,36.2,33.5,30.19,WNW,293,1.1,1.3,90,0.00,,,0.00,WUHU216HW,2012-11-11 16:15:00,
2012-11-11 08:20:00,36.2,33.5,30.19,WNW,293,0.7,1.1,90,0.00,,,0.00,WUHU216HW,2012-11-11 16:20:00,
2012-11-11 08:25:00,36.4,33.7,30.18,WNW,293,0.7,1.1,90,0.00,,,0.00,WUHU216HW,2012-11-11 16:25:00,
2012-11-11 08:30:00,36.4,33.7,30.18,WNW,293,0.0,1.1,90,0.00,,,0.00,WUHU216HW,2012-11-11 16:30:00,
2012-11-11 08:35:00,36.4,33.7,30.18,NW,315,0.0,1.1,90,0.00,,,0.00,WUHU216HW,2012-11-11 16:35:00,
2012-11-11 08:40:00,36.5,33.8,30.18,NW,315,0.0,0.4,90,0.00,,,0.00,WUHU216HW,2012-11-11 16:40:00,
2012-11-11 08:45:00,36.7,34.0,30.18,NW,315,0.0,0.4,90,0.00,,,0.00,WUHU216HW,2012-11-11 16:45:00,
2012-11-11 08:50:00,36.7,34.0,30.19,NW,315,0.0,0.0,90,0.00,,,0.00,WUHU216HW,2012-11-11 16:50:00,
2012-11-11 08:55:00,37.1,34.4,30.18,NW,315,0.0,0.0,90,0.00,,,0.00,WUHU216HW,2012-11-11 16:55:00,
2012-11-11 09:00:00,37.1,34.7,30.18,NW,315,0.7,0.9,91,0.00,,,0.00,WUHU216HW,2012-11-11 17:00:00,
2012-11-11 09:05:00,37.4,35.0,30.18,NE,45,0.0,1.6,91,0.00,,,0.00,WUHU216HW,2012-11-11 17:05:00,
2012-11-11 09:10:00,37.4,35.0,30.18,NE,45,0.7,1.6,91,0.00,,,0.00,WUHU216HW,2012-11-11 17:10:00,
2012-11-11 09:15:00,37.6,35.2,30.18,NE,45,0.0,0.7,91,0.00,,,0.00,WUHU216HW,2012-11-11 17:15:00,
2012-11-11 09:20:00,37.8,35.4,30.18,NE,45,0.0,0.7,91,0.00,,,0.00,WUHU216HW,2012-11-11 17:20:00,
2012-11-11 09:25:00,37.8,35.4,30.19,NE,45,0.0,0.0,91,0.00,,,0.00,WUHU216HW,2012-11-11 17:25:00,
2012-11-11 09:30:00,38.0,35.6,30.19,NE,45,0.0,0.0,91,0.00,,,0.00,WUHU216HW,2012-11-11 17:30:00,
2012-11-11 09:35:00,38.2,35.7,30.19,North,0,0.7,1.1,91,0.00,,,0.00,WUHU216HW,2012-11-11 17:35:00,
2012-11-11 09:40:00,38.2,35.7,30.19,North,0,0.4,1.1,91,0.00,,,0.00,WUHU216HW,2012-11-11 17:40:00,
2012-11-11 09:45:00,38.5,36.1,30.19,North,0,0.0,0.7,91,0.00,,,0.00,WUHU216HW,2012-11-11 17:45:00,
2012-11-11 09:50:00,38.5,36.1,30.19,North,0,0.0,0.2,91,0.00,,,0.00,WUHU216HW,2012-11-11 17:50:00,
2012-11-11 09:55:00,38.7,36.3,30.19,North,0,0.0,0.2,91,0.00,,,0.00,WUHU216HW,2012-11-11 17:55:00,
2012-11-11 10:00:00,38.9,36.5,30.19,North,0,0.0,0.0,91,0.01,,,0.01,WUHU216HW,2012-11-11 18:00:00,
2012-11-11 10:05:00,39.1,36.9,30.19,North,0,0.0,0.2,92,0.01,,,0.01,WUHU216HW,2012-11-11 18:05:00,
2012-11-11 10:10:00,39.2,36.8,30.19,North,0,0.0,0.2,91,0.01,,,0.01,WUHU216HW,2012-11-11 18:10:00,
2012-11-11 10:15:00,39.2,36.8,30.19,North,0,0.4,0.9,91,0.01,,,0.01,WUHU216HW,2012-11-11 18:15:00,
2012-11-11 10:20:00,39.6,37.2,30.19,North,0,0.2,0.9,91,0.01,,,0.01,WUHU216HW,2012-11-11 18:20:00,
2012-11-11 10:25:00,39.6,37.2,30.19,North,0,0.2,0.7,91,0.01,,,0.01,WUHU216HW,2012-11-11 18:25:00,
2012-11-11 10:30:00,40.0,37.5,30.19,NE,45,1.1,1.8,91,0.01,,,0.01,WUHU216HW,2012-11-11 18:30:00,
2012-11-11 10:35:00,40.0,37.5,30.19,NE,45,0.7,2.5,91,0.01,,,0.01,WUHU216HW,2012-11-11 18:35:00,
2012-11-11 10:40:00,40.1,37.7,30.19,NNE,23,0.4,2.5,91,0.01,,,0.01,WUHU216HW,2012-11-11 18:40:00,
2012-11-11 10:45:00,40.1,37.7,30.19,NNE,23,1.1,1.8,91,0.01,,,0.01,WUHU216HW,2012-11-11 18:45:00,
2012-11-11 10:50:00,40.3,37.6,30.19,NE,45,1.1,1.3,90,0.01,,,0.01,WUHU216HW,2012-11-11 18:50:00,
2012-11-11 10:55:00,40.5,37.8,30.19,NE,45,0.0,1.8,90,0.01,,,0.01,WUHU216HW,2012-11-11 18:55:00,
2012-11-11 11:00:00,40.7,38.0,30.19,NE,45,1.1,1.8,90,0.00,,,0.01,WUHU216HW,2012-11-11 19:00:00,
2012-11-11 11:05:00,40.7,38.0,30.19,NE,45,0.0,1.6,90,0.00,,,0.01,WUHU216HW,2012-11-11 19:05:00,
2012-11-11 11:10:00,40.7,38.0,30.18,NE,45,0.0,1.8,90,0.00,,,0.01,WUHU216HW,2012-11-11 19:10:00,
2012-11-11 11:15:00,41.0,38.3,30.18,ENE,68,1.1,1.8,90,0.00,,,0.01,WUHU216HW,2012-11-11 19:15:00,
2012-11-11 11:20:00,41.2,38.5,30.18,East,90,1.1,1.8,90,0.00,,,0.01,WUHU216HW,2012-11-11 19:20:00,
2012-11-11 11:25:00,41.4,38.7,30.17,ENE,68,0.7,1.8,90,0.00,,,0.01,WUHU216HW,2012-11-11 19:25:00,
2012-11-11 11:30:00,41.8,39.1,30.17,ESE,113,0.4,1.8,90,0.00,,,0.01,WUHU216HW,2012-11-11 19:30:00,
2012-11-11 11:35:00,41.9,39.2,30.17,ENE,68,1.8,2.0,90,0.00,,,0.01,WUHU216HW,2012-11-11 19:35:00,
2012-11-11 11:40:00,42.1,39.4,30.17,ENE,68,0.4,2.0,90,0.00,,,0.01,WUHU216HW,2012-11-11 19:40:00,
2012-11-11 11:45:00,42.3,39.6,30.17,NE,45,1.8,2.0,90,0.00,,,0.01,WUHU216HW,2012-11-11 19:45:00,
2012-11-11 11:50:00,42.3,39.3,30.17,ENE,68,0.4,1.8,89,0.00,,,0.01,WUHU216HW,2012-11-11 19:50:00,
2012-11-11 11:55:00,42.1,39.2,30.17,ENE,68,0.0,1.8,89,0.00,,,0.01,WUHU216HW,2012-11-11 19:55:00,
2012-11-11 12:00:00,42.1,39.2,30.17,ENE,68,0.0,1.1,89,0.00,,,0.01,WUHU216HW,2012-11-11 20:00:00,
2012-11-11 12:05:00,42.1,39.2,30.17,SSW,203,0.4,1.1,89,0.00,,,0.01,WUHU216HW,2012-11-11 20:05:00,
2012-11-11 12:10:00,42.3,39.3,30.17,SSW,203,0.0,1.3,89,0.00,,,0.01,WUHU216HW,2012-11-11 20:10:00,
2012-11-11 12:15:00,42.3,39.3,30.17,SSW,203,0.0,1.3,89,0.00,,,0.01,WUHU216HW,2012-11-11 20:15:00,
2012-11-11 12:20:00,42.3,39.3,30.17,SW,225,0.2,1.6,89,0.00,,,0.01,WUHU216HW,2012-11-11 20:20:00,
2012-11-11 12:25:00,42.3,39.3,30.17,SW,225,0.7,2.0,89,0.00,,,0.01,WUHU216HW,2012-11-11 20:25:00,
2012-11-11 12:30:00,42.5,39.5,30.17,SW,225,2.5,2.5,89,0.00,,,0.01,WUHU216HW,2012-11-11 20:30:00,
2012-11-11 12:35:00,42.5,39.5,30.17,SW,225,0.0,2.5,89,0.00,,,0.01,WUHU216HW,2012-11-11 20:35:00,
2012-11-11 12:40:00,42.7,39.7,30.17,SE,135,0.2,2.5,89,0.00,,,0.01,WUHU216HW,2012-11-11 20:40:00,
2012-11-11 12:45:00,42.8,39.9,30.16,SW,225,2.5,2.5,89,0.00,,,0.01,WUHU216HW,2012-11-11 20:45:00,
2012-11-11 12:50:00,42.8,39.9,30.16,SSW,203,0.9,2.9,89,0.00,,,0.01,WUHU216HW,2012-11-11 20:50:00,
2012-11-11 12:55:00,43.0,40.1,30.16,SW,225,0.0,2.9,89,0.00,,,0.01,WUHU216HW,2012-11-11 20:55:00,
2012-11-11 13:00:00,43.4,40.1,30.16,NNE,23,0.7,1.8,88,0.00,,,0.01,WUHU216HW,2012-11-11 21:00:00,
2012-11-11 13:05:00,43.9,40.6,30.16,SSW,203,0.7,2.7,88,0.00,,,0.01,WUHU216HW,2012-11-11 21:05:00,
2012-11-11 13:10:00,44.5,41.1,30.16,North,0,0.9,2.7,88,0.00,,,0.01,WUHU216HW,2012-11-11 21:10:00,
2012-11-11 13:15:00,45.0,41.7,30.15,WSW,248,1.1,4.5,88,0.00,,,0.01,WUHU216HW,2012-11-11 21:15:00,
2012-11-11 13:20:00,45.2,41.9,30.15,SW,225,0.4,4.5,88,0.00,,,0.01,WUHU216HW,2012-11-11 21:20:00,
2012-11-11 13:25:00,45.5,42.2,30.15,SW,225,1.1,4.0,88,0.00,,,0.01,WUHU216HW,2012-11-11 21:25:00,
2012-11-11 13:30:00,45.7,42.1,30.15,WSW,248,1.6,3.8,87,0.00,,,0.01,WUHU216HW,2012-11-11 21:30:00,
2012-11-11 13:35:00,45.7,42.1,30.15,WSW,248,2.0,3.8,87,0.00,,,0.01,WUHU216HW,2012-11-11 21:35:00,
2012-11-11 13:40:00,45.7,42.1,30.15,South,180,0.4,3.6,87,0.00,,,0.01,WUHU216HW,2012-11-11 21:40:00,
2012-11-11 13:45:00,45.7,42.1,30.14,WSW,248,1.1,2.7,87,0.00,,,0.01,WUHU216HW,2012-11-11 21:45:00,
2012-11-11 13:50:00,45.7,42.1,30.14,WNW,293,0.9,2.5,87,0.00,,,0.01,WUHU216HW,2012-11-11 21:50:00,
2012-11-11 13:55:00,45.5,42.0,30.14,WSW,248,1.6,2.5,87,0.00,,,0.01,WUHU216HW,2012-11-11 21:55:00,
2012-11-11 14:00:00,45.4,41.8,30.14,WSW,248,0.0,2.5,87,0.00,,,0.01,WUHU216HW,2012-11-11 22:00:00,
2012-11-11 14:05:00,45.4,41.8,30.14,SW,225,2.9,2.9,87,0.00,,,0.01,WUHU216HW,2012-11-11 22:05:00,
2012-11-11 14:10:00,45.2,41.9,30.14,WSW,248,1.1,2.9,88,0.00,,,0.01,WUHU216HW,2012-11-11 22:10:00,
2012-11-11 14:15:00,45.2,41.9,30.13,SW,225,1.1,2.9,88,0.01,,,0.02,WUHU216HW,2012-11-11 22:15:00,
2012-11-11 14:20:00,45.0,41.7,30.13,SW,225,0.4,2.5,88,0.01,,,0.02,WUHU216HW,2012-11-11 22:20:00,
2012-11-11 14:25:00,44.8,41.5,30.13,SW,225,1.6,2.5,88,0.01,,,0.02,WUHU216HW,2012-11-11 22:25:00,
2012-11-11 14:30:00,44.8,41.5,30.13,WSW,248,1.6,2.0,88,0.01,,,0.02,WUHU216HW,2012-11-11 22:30:00,
2012-11-11 14:35:00,44.6,41.3,30.13,WSW,248,0.4,2.5,88,0.01,,,0.02,WUHU216HW,2012-11-11 22:35:00,
2012-11-11 14:40:00,44.5,41.1,30.13,WSW,248,0.9,2.5,88,0.01,,,0.02,WUHU216HW,2012-11-11 22:40:00,
2012-11-11 14:45:00,44.5,41.1,30.13,WSW,248,0.0,1.8,88,0.02,,,0.03,WUHU216HW,2012-11-11 22:45:00,
2012-11-11 14:50:00,44.3,41.0,30.13,SSW,203,0.2,1.1,88,0.02,,,0.03,WUHU216HW,2012-11-11 22:50:00,
2012-11-11 14:55:00,44.3,41.0,30.13,SW,225,0.0,2.0,88,0.02,,,0.03,WUHU216HW,2012-11-11 22:55:00,
2012-11-11 15:00:00,44.1,41.1,30.13,SW,225,0.0,2.0,89,0.02,,,0.03,WUHU216HW,2012-11-11 23:00:00,
2012-11-11 15:05:00,43.9,41.0,30.13,SW,225,0.0,0.9,89,0.03,,,0.04,WUHU216HW,2012-11-11 23:05:00,
2012-11-11 15:10:00,43.9,40.6,30.12,SW,225,0.0,0.4,88,0.03,,,0.04,WUHU216HW,2012-11-11 23:10:00,
2012-11-11 15:15:00,43.7,40.4,30.12,NW,315,0.7,0.9,88,0.03,,,0.05,WUHU216HW,2012-11-11 23:15:00,
2012-11-11 15:20:00,43.6,40.2,30.12,NW,315,0.0,0.9,88,0.04,,,0.06,WUHU216HW,2012-11-11 23:20:00,
2012-11-11 15:25:00,43.6,40.2,30.12,WSW,248,0.0,0.9,88,0.05,,,0.07,WUHU216HW,2012-11-11 23:25:00,
2012-11-11 15:30:00,43.6,40.2,30.12,WSW,248,1.1,1.1,88,0.06,,,0.08,WUHU216HW,2012-11-11 23:30:00,
2012-11-11 15:35:00,43.4,40.4,30.12,West,270,1.1,1.1,89,0.07,,,0.09,WUHU216HW,2012-11-11 23:35:00,
2012-11-11 15:40:00,43.4,40.4,30.12,West,270,1.6,1.6,89,0.06,,,0.09,WUHU216HW,2012-11-11 23:40:00,
2012-11-11 15:45:00,43.4,40.4,30.12,West,270,0.0,1.6,89,0.07,,,0.10,WUHU216HW,2012-11-11 23:45:00,
2012-11-11 15:50:00,43.4,40.4,30.12,NNW,338,0.7,1.6,89,0.08,,,0.11,WUHU216HW,2012-11-11 23:50:00,
2012-11-11 15:55:00,43.2,40.2,30.11,SW,225,0.0,1.3,89,0.09,,,0.12,WUHU216HW,2012-11-11 23:55:00,
2012-11-11 16:00:00,43.2,40.2,30.11,SW,225,0.0,1.3,89,0.09,,,0.13,WUHU216HW,2012-11-12 00:00:00,
2012-11-11 16:05:00,43.4,40.7,30.11,North,0,0.0,0.9,90,0.09,,,0.13,WUHU216HW,2012-11-12 00:05:00,
2012-11-11 16:10:00,43.4,40.7,30.11,North,0,0.0,0.9,90,0.10,,,0.14,WUHU216HW,2012-11-12 00:10:00,
2012-11-11 16:15:00,43.4,40.7,30.11,North,0,0.0,1.1,90,0.10,,,0.15,WUHU216HW,2012-11-12 00:15:00,
2012-11-11 16:20:00,43.2,40.5,30.11,North,0,0.0,1.1,90,0.09,,,0.15,WUHU216HW,2012-11-12 00:20:00,
2012-11-11 16:25:00,43.4,40.7,30.10,North,0,0.0,0.0,90,0.09,,,0.16,WUHU216HW,2012-11-12 00:25:00,
2012-11-11 16:30:00,43.2,40.5,30.10,West,270,0.0,0.4,90,0.09,,,0.17,WUHU216HW,2012-11-12 00:30:00,
2012-11-11 16:35:00,43.2,40.5,30.10,SW,225,2.0,2.0,90,0.09,,,0.18,WUHU216HW,2012-11-12 00:35:00,
2012-11-11 16:40:00,43.4,40.7,30.10,NNW,338,0.0,2.0,90,0.09,,,0.19,WUHU216HW,2012-11-12 00:40:00,
2012-11-11 16:45:00,43.4,40.7,30.10,East,90,0.4,2.0,90,0.10,,,0.20,WUHU216HW,2012-11-12 00:45:00,
2012-11-11 16:50:00,43.4,41.0,30.10,NW,315,0.4,2.0,91,0.10,,,0.21,WUHU216HW,2012-11-12 00:50:00,
2012-11-11 16:55:00,43.6,41.1,30.10,SSW,203,0.7,1.8,91,0.10,,,0.22,WUHU216HW,2012-11-12 00:55:00,
2012-11-11 17:00:00,43.6,41.1,30.10,North,0,2.0,2.0,91,0.10,,,0.23,WUHU216HW,2012-11-12 01:00:00,
2012-11-11 17:05:00,43.6,41.1,30.10,NE,45,2.2,2.2,91,0.10,,,0.24,WUHU216HW,2012-11-12 01:05:00,
2012-11-11 17:10:00,43.6,41.1,30.09,North,0,1.8,2.2,91,0.10,,,0.24,WUHU216HW,2012-11-12 01:10:00,
2012-11-11 17:15:00,43.7,41.6,30.09,West,270,0.4,1.8,92,0.10,,,0.25,WUHU216HW,2012-11-12 01:15:00,
2012-11-11 17:20:00,43.7,41.6,30.09,NE,45,1.1,2.2,92,0.10,,,0.26,WUHU216HW,2012-11-12 01:20:00,
2012-11-11 17:25:00,43.7,41.6,30.09,WNW,293,0.9,2.2,92,0.10,,,0.27,WUHU216HW,2012-11-12 01:25:00,
2012-11-11 17:30:00,43.7,41.6,30.08,North,0,0.0,1.8,92,0.09,,,0.27,WUHU216HW,2012-11-12 01:30:00,
2012-11-11 17:35:00,43.7,41.6,30.09,NNE,23,0.4,1.8,92,0.09,,,0.28,WUHU216HW,2012-11-12 01:35:00,
2012-11-11 17:40:00,43.7,41.6,30.09,North,0,0.0,0.7,92,0.09,,,0.29,WUHU216HW,2012-11-12 01:40:00,
2012-11-11 17:45:00,43.7,41.6,30.08,NNE,23,0.9,1.1,92,0.09,,,0.31,WUHU216HW,2012-11-12 01:45:00,
2012-11-11 17:50:00,43.7,41.6,30.08,NNE,23,0.0,1.1,92,0.10,,,0.31,WUHU216HW,2012-11-12 01:50:00,
2012-11-11 17:55:00,43.7,41.6,30.08,NNE,23,0.0,1.1,92,0.10,,,0.32,WUHU216HW,2012-11-12 01:55:00,
2012-11-11 18:00:00,43.7,41.6,30.08,NNE,23,0.0,0.7,92,0.10,,,0.33,WUHU216HW,2012-11-12 02:00:00,
2012-11-11 18:05:00,43.7,41.6,30.07,ENE,68,1.1,1.1,92,0.09,,,0.33,WUHU216HW,2012-11-12 02:05:00,
2012-11-11 18:10:00,43.7,41.6,30.07,NE,45,0.0,2.9,92,0.09,,,0.34,WUHU216HW,2012-11-12 02:10:00,
2012-11-11 18:15:00,43.7,41.6,30.07,ENE,68,0.4,2.9,92,0.10,,,0.35,WUHU216HW,2012-11-12 02:15:00,
2012-11-11 18:20:00,43.7,41.6,30.07,NE,45,0.2,1.3,92,0.10,,,0.36,WUHU216HW,2012-11-12 02:20:00,
2012-11-11 18:25:00,43.7,41.6,30.07,NNE,23,0.0,2.2,92,0.10,,,0.38,WUHU216HW,2012-11-12 02:25:00,
2012-11-11 18:30:00,43.6,41.4,30.07,NNE,23,0.4,2.2,92,0.10,,,0.38,WUHU216HW,2012-11-12 02:30:00,
2012-11-11 18:35:00,43.6,41.4,30.07,NNE,23,0.0,1.1,92,0.10,,,0.38,WUHU216HW,2012-11-12 02:35:00,
2012-11-11 18:40:00,43.6,41.4,30.07,NNE,23,0.0,1.1,92,0.09,,,0.40,WUHU216HW,2012-11-12 02:40:00,
2012-11-11 18:45:00,43.7,41.6,30.07,NNE,23,1.1,1.1,92,0.09,,,0.40,WUHU216HW,2012-11-12 02:45:00,
2012-11-11 18:50:00,43.6,41.4,30.07,North,0,0.4,1.1,92,0.09,,,0.40,WUHU216HW,2012-11-12 02:50:00,
2012-11-11 18:55:00,43.7,41.6,30.07,North,0,0.4,1.1,92,0.09,,,0.42,WUHU216HW,2012-11-12 02:55:00,
2012-11-11 19:00:00,43.6,41.4,30.07,NNE,23,0.0,1.3,92,0.09,,,0.43,WUHU216HW,2012-11-12 03:00:00,
2012-11-11 19:05:00,43.6,41.4,30.07,NNE,23,0.0,1.3,92,0.08,,,0.43,WUHU216HW,2012-11-12 03:05:00,
2012-11-11 19:10:00,43.6,41.4,30.06,NNE,23,0.0,0.4,92,0.09,,,0.43,WUHU216HW,2012-11-12 03:10:00,
2012-11-11 19:15:00,43.6,41.4,30.06,NNE,23,0.0,0.4,92,0.09,,,0.45,WUHU216HW,2012-11-12 03:15:00,
2012-11-11 19:20:00,43.6,41.4,30.06,NNE,23,0.0,0.9,92,0.08,,,0.45,WUHU216HW,2012-11-12 03:20:00,
2012-11-11 19:25:00,43.6,41.4,30.06,North,0,0.0,1.1,92,0.09,,,0.47,WUHU216HW,2012-11-12 03:25:00,
2012-11-11 19:30:00,43.6,41.4,30.06,North,0,0.0,1.1,92,0.09,,,0.47,WUHU216HW,2012-11-12 03:30:00,
2012-11-11 19:35:00,43.6,41.7,30.06,North,0,0.4,0.9,93,0.09,,,0.47,WUHU216HW,2012-11-12 03:35:00,
2012-11-11 19:40:00,43.6,41.7,30.05,North,0,0.4,0.9,93,0.08,,,0.47,WUHU216HW,2012-11-12 03:40:00,
2012-11-11 19:45:00,43.6,41.7,30.05,North,0,0.0,0.9,93,0.08,,,0.49,WUHU216HW,2012-11-12 03:45:00,
2012-11-11 19:50:00,43.6,41.7,30.05,WSW,248,1.1,1.3,93,0.08,,,0.49,WUHU216HW,2012-11-12 03:50:00,
2012-11-11 19:55:00,43.6,41.7,30.05,WSW,248,0.2,3.4,93,0.07,,,0.49,WUHU216HW,2012-11-12 03:55:00,
2012-11-11 20:00:00,43.6,41.7,30.05,West,270,0.2,3.4,93,0.06,,,0.49,WUHU216HW,2012-11-12 04:00:00,
2012-11-11 20:05:00,43.6,41.7,30.05,West,270,0.0,1.6,93,0.06,,,0.50,WUHU216HW,2012-11-12 04:05:00,
2012-11-11 20:10:00,43.6,41.7,30.05,West,270,0.0,0.7,93,0.05,,,0.50,WUHU216HW,2012-11-12 04:10:00,
2012-11-11 20:15:00,43.6,41.7,30.05,West,270,0.0,1.1,93,0.05,,,0.50,WUHU216HW,2012-11-12 04:15:00,
2012-11-11 20:20:00,43.6,41.7,30.05,West,270,0.0,1.1,93,0.03,,,0.50,WUHU216HW,2012-11-12 04:20:00,
2012-11-11 20:25:00,43.6,41.7,30.05,NNW,338,0.4,1.1,93,0.04,,,0.51,WUHU216HW,2012-11-12 04:25:00,
2012-11-11 20:30:00,43.6,41.7,30.06,NNW,338,0.0,1.1,93,0.03,,,0.51,WUHU216HW,2012-11-12 04:30:00,
2012-11-11 20:35:00,43.6,41.7,30.06,NNW,338,1.1,1.1,93,0.04,,,0.52,WUHU216HW,2012-11-12 04:35:00,
2012-11-11 20:40:00,43.6,41.7,30.06,NNW,338,0.4,1.1,93,0.03,,,0.52,WUHU216HW,2012-11-12 04:40:00,
2012-11-11 20:45:00,43.6,41.7,30.06,ENE,68,1.6,1.8,93,0.04,,,0.53,WUHU216HW,2012-11-12 04:45:00,
2012-11-11 20:50:00,43.6,41.7,30.05,ENE,68,1.1,1.8,93,0.04,,,0.53,WUHU216HW,2012-11-12 04:50:00,
2012-11-11 20:55:00,43.6,41.7,30.05,ESE,113,1.1,2.0,93,0.04,,,0.53,WUHU216HW,2012-11-12 04:55:00,
2012-11-11 21:00:00,43.6,41.7,30.05,ENE,68,0.0,2.0,93,0.05,,,0.54,WUHU216HW,2012-11-12 05:00:00,
2012-11-11 21:01:00,43.6,41.7,30.05,ENE,68,1.6,2.0,93,0.04,,,0.54,WUHU216HW,2012-11-12 05:01:00,
2012-11-11 21:03:00,43.6,41.7,30.05,NE,45,0.4,1.6,93,0.04,,,0.54,WUHU216HW,2012-11-12 05:03:00,
2012-11-11 21:08:00,43.6,41.7,30.06,NE,45,0.0,1.6,93,0.04,,,0.54,WUHU216HW,2012-11-12 05:08:00,
2012-11-11 21:13:00,43.6,41.7,30.06,NE,45,0.4,1.1,93,0.04,,,0.54,WUHU216HW,2012-11-12 05:13:00,
2012-11-11 21:18:00,43.6,41.7,30.06,NE,45,0.0,0.9,93,0.05,,,0.55,WUHU216HW,2012-11-12 05:18:00,
2012-11-11 21:23:00,43.6,41.7,30.06,NE,45,0.4,0.9,93,0.05,,,0.56,WUHU216HW,2012-11-12 05:23:00,
2012-11-11 21:28:00,43.6,41.7,30.06,NE,45,0.0,0.4,93,0.05,,,0.56,WUHU216HW,2012-11-12 05:28:00,
2012-11-11 21:33:00,43.6,41.7,30.06,NE,45,0.0,0.4,93,0.05,,,0.57,WUHU216HW,2012-11-12 05:33:00,
2012-11-11 21:38:00,43.6,41.7,30.06,NE,45,0.0,0.0,93,0.06,,,0.58,WUHU216HW,2012-11-12 05:38:00,
2012-11-11 21:43:00,43.6,41.7,30.06,NE,45,0.4,1.3,93,0.06,,,0.58,WUHU216HW,2012-11-12 05:43:00,
2012-11-11 21:48:00,43.6,41.7,30.06,NE,45,0.9,1.3,93,0.06,,,0.59,WUHU216HW,2012-11-12 05:48:00,
2012-11-11 21:53:00,43.6,41.7,30.05,NE,45,0.0,0.9,93,0.07,,,0.60,WUHU216HW,2012-11-12 05:53:00,
2012-11-11 21:58:00,43.6,41.7,30.06,NE,45,0.0,0.9,93,0.07,,,0.61,WUHU216HW,2012-11-12 05:58:00,
2012-11-11 22:03:00,43.6,41.7,30.06,NE,45,0.0,0.2,93,0.08,,,0.62,WUHU216HW,2012-11-12 06:03:00,
2012-11-11 22:08:00,43.6,41.7,30.06,NE,45,0.7,0.7,93,0.09,,,0.63,WUHU216HW,2012-11-12 06:08:00,
2012-11-11 22:13:00,43.6,41.7,30.05,NE,45,0.0,0.9,93,0.08,,,0.63,WUHU216HW,2012-11-12 06:13:00,
2012-11-11 22:18:00,43.6,41.7,30.05,NE,45,0.0,0.9,93,0.09,,,0.64,WUHU216HW,2012-11-12 06:18:00,
2012-11-11 22:23:00,43.6,41.7,30.04,NE,45,0.0,0.0,93,0.08,,,0.64,WUHU216HW,2012-11-12 06:23:00,
2012-11-11 22:28:00,43.6,41.7,30.04,ENE,68,0.4,1.8,93,0.09,,,0.66,WUHU216HW,2012-11-12 06:28:00,
2012-11-11 22:33:00,43.6,41.7,30.04,ENE,68,0.0,1.8,93,0.11,,,0.68,WUHU216HW,2012-11-12 06:33:00,
2012-11-11 22:38:00,43.6,41.7,30.04,NE,45,0.0,0.9,93,0.11,,,0.69,WUHU216HW,2012-11-12 06:38:00,
2012-11-11 22:43:00,43.6,41.7,30.04,NE,45,0.0,0.4,93,0.12,,,0.70,WUHU216HW,2012-11-12 06:43:00,
2012-11-11 22:48:00,43.7,41.9,30.04,NE,45,0.0,0.0,93,0.10,,,0.70,WUHU216HW,2012-11-12 06:48:00,
2012-11-11 22:53:00,43.7,41.9,30.04,NE,45,0.0,0.0,93,0.10,,,0.71,WUHU216HW,2012-11-12 06:53:00,
2012-11-11 22:58:00,43.7,41.9,30.04,NNW,338,0.0,1.1,93,0.09,,,0.71,WUHU216HW,2012-11-12 06:58:00,
2012-11-11 23:03:00,43.7,41.9,30.04,NNW,338,0.0,1.1,93,0.09,,,0.71,WUHU216HW,2012-11-12 07:03:00,
2012-11-11 23:08:00,43.7,41.9,30.04,NNW,338,0.0,0.7,93,0.09,,,0.72,WUHU216HW,2012-11-12 07:08:00,
2012-11-11 23:13:00,43.7,41.9,30.04,NNW,338,0.2,0.9,93,0.10,,,0.73,WUHU216HW,2012-11-12 07:13:00,
2012-11-11 23:18:00,43.7,41.9,30.04,NNW,338,0.0,0.9,93,0.09,,,0.73,WUHU216HW,2012-11-12 07:18:00,
2012-11-11 23:23:00,43.7,41.9,30.04,West,270,0.4,1.3,93,0.09,,,0.73,WUHU216HW,2012-11-12 07:23:00,
2012-11-11 23:28:00,43.9,42.0,30.05,WSW,248,0.4,2.0,93,0.07,,,0.74,WUHU216HW,2012-11-12 07:28:00,
2012-11-11 23:33:00,43.9,42.0,30.05,West,270,0.0,2.0,93,0.07,,,0.75,WUHU216HW,2012-11-12 07:33:00,
2012-11-11 23:38:00,43.9,42.0,30.05,West,270,0.0,1.1,93,0.06,,,0.75,WUHU216HW,2012-11-12 07:38:00,
2012-11-11 23:43:00,43.9,42.0,30.05,West,270,0.0,1.1,93,0.06,,,0.76,WUHU216HW,2012-11-12 07:43:00,
2012-11-11 23:48:00,43.9,42.0,30.05,West,270,0.0,0.0,93,0.06,,,0.76,WUHU216HW,2012-11-12 07:48:00,
2012-11-11 23:53:00,43.9,42.0,30.04,West,270,0.4,0.4,93,0.05,,,0.76,WUHU216HW,2012-11-12 07:53:00,
2012-11-11 23:58:00,43.9,42.0,30.05,NW,315,0.0,0.7,93,0.06,,,0.77,WUHU216HW,2012-11-12 07:58:00,